Time;durP1;ratioP1;P1;durP2;ratioP2;P2;SDS_P1;SDS_P2;PMS_P1;PMS_P2;Temp;Humidity;BMP_temperature;BMP_pressure;BME280_temperature;BME280_humidity;BME280_pressure;Samples;Min_cycle;Max_cycle;Signal;HPM_P1;HPM_P2
2022/12/19 00:01:57;;;;;;;25.35;13.50;;;;;;;-0.38;48.43;101744.47;5021336;28;20037;-80
2022/12/19 00:04:25;;;;;;;24.25;12.75;;;;;;;-0.37;48.21;101735.50;5020064;28;20041;-79
2022/12/19 00:06:53;;;;;;;23.48;13.75;;;;;;;-0.37;48.34;101733.69;5024527;28;20037;-80
2022/12/19 00:09:21;;;;;;;26.77;13.30;;;;;;;-0.37;48.47;101733.69;5028132;28;20065;-79
2022/12/19 00:11:49;;;;;;;24.58;12.75;;;;;;;-0.36;48.60;101726.50;5027527;28;20045;-79
2022/12/19 00:14:18;;;;;;;23.80;12.88;;;;;;;-0.33;48.65;101729.13;5026592;28;20503;-80
2022/12/19 00:16:46;;;;;;;23.60;12.02;;;;;;;-0.34;48.40;101719.28;5025223;28;20050;-80
2022/12/19 00:19:14;;;;;;;23.65;12.38;;;;;;;-0.33;48.52;101721.94;5022157;28;20451;-80
2022/12/19 00:21:42;;;;;;;22.80;12.32;;;;;;;-0.32;48.42;101737.16;5030411;28;20033;-79
2022/12/19 00:24:11;;;;;;;24.90;12.30;;;;;;;-0.31;48.73;101728.16;5025557;28;20041;-80
2022/12/19 00:26:48;;;;;;;25.33;13.25;;;;;;;-0.31;48.79;101738.91;5026842;28;20061;-80
2022/12/19 00:29:18;;;;;;;24.17;12.38;;;;;;;-0.29;48.78;101738.84;5016451;28;20493;-81
2022/12/19 00:31:45;;;;;;;22.67;12.95;;;;;;;-0.29;48.61;101733.47;5017334;28;20048;-80
2022/12/19 00:34:14;;;;;;;24.08;12.07;;;;;;;-0.28;48.44;101737.94;5027254;28;20038;-80
2022/12/19 00:36:43;;;;;;;23.52;12.77;;;;;;;-0.26;48.76;101734.28;5028055;28;20045;-81
2022/12/19 00:39:11;;;;;;;22.52;12.45;;;;;;;-0.26;48.76;101717.25;5027757;28;20042;-80
2022/12/19 00:41:40;;;;;;;28.90;13.55;;;;;;;-0.26;48.93;101702.00;5024336;28;20045;-80
2022/12/19 00:44:11;;;;;;;23.67;12.57;;;;;;;-0.25;48.91;101693.00;5024859;28;20038;-80
2022/12/19 00:46:42;;;;;;;25.38;12.75;;;;;;;-0.24;48.93;101685.81;5022628;28;20049;-80
2022/12/19 00:49:19;;;;;;;24.50;13.00;;;;;;;-0.25;48.67;101687.63;5022248;28;20072;-80
2022/12/19 00:51:46;;;;;;;22.90;12.63;;;;;;;-0.25;49.10;101690.31;5024581;28;20104;-81
2022/12/19 00:54:15;;;;;;;22.30;12.38;;;;;;;-0.24;49.06;101701.97;5028706;28;20099;-81
2022/12/19 00:56:43;;;;;;;23.70;12.63;;;;;;;-0.23;49.06;101722.56;5029550;28;20040;-81
2022/12/19 00:59:11;;;;;;;25.80;12.10;;;;;;;-0.23;49.04;101709.09;5048955;28;20518;-81
2022/12/19 01:01:40;;;;;;;24.65;12.70;;;;;;;-0.19;49.08;101702.69;5027141;28;20496;-80
2022/12/19 01:04:13;;;;;;;25.95;13.18;;;;;;;-0.20;49.59;101707.19;5026740;28;20049;-81
2022/12/19 01:06:58;;;;;;;25.60;13.25;;;;;;;-0.22;49.23;101703.66;5024900;28;20818;-82
2022/12/19 01:09:31;;;;;;;26.33;13.38;;;;;;;-0.20;49.45;101704.50;5026939;28;20096;-81
2022/12/19 01:14:47;;;;;;;24.33;12.43;;;;;;;-0.19;49.32;101684.75;5028260;28;20037;-81
2022/12/19 01:17:15;;;;;;;23.13;13.05;;;;;;;-0.16;49.57;101675.72;5032305;28;20393;-81
2022/12/19 01:19:44;;;;;;;26.35;12.77;;;;;;;-0.16;49.54;101673.91;5030971;28;20053;-82
2022/12/19 01:22:12;;;;;;;23.38;12.32;;;;;;;-0.17;49.31;101677.50;5027147;28;20103;-81
2022/12/19 01:24:40;;;;;;;23.60;11.68;;;;;;;-0.15;49.36;101642.50;5029561;28;20038;-82
2022/12/19 01:27:08;;;;;;;23.30;12.30;;;;;;;-0.15;49.48;101639.81;5032269;28;20049;-82
2022/12/19 01:29:38;;;;;;;22.85;12.73;;;;;;;-0.14;49.77;101639.75;5032771;28;20041;-81
2022/12/19 01:32:20;;;;;;;26.10;12.30;;;;;;;-0.14;49.70;101646.94;5034248;28;20439;-82
2022/12/19 01:34:49;;;;;;;20.85;11.80;;;;;;;-0.12;49.63;101666.59;5036139;28;20041;-81
2022/12/19 01:37:17;;;;;;;23.10;11.93;;;;;;;-0.12;49.52;101648.66;5036917;28;20042;-82
2022/12/19 01:39:45;;;;;;;22.85;12.77;;;;;;;-0.11;49.72;101658.50;5039580;28;20105;-81
2022/12/19 01:42:15;;;;;;;24.88;12.45;;;;;;;-0.10;49.93;101657.56;5034836;28;20050;-82
2022/12/19 01:45:04;;;;;;;21.42;11.55;;;;;;;-0.08;50.96;101644.97;5030733;28;20047;-81
2022/12/19 01:47:35;;;;;;;24.85;12.77;;;;;;;-0.10;50.10;101630.66;5033570;28;20309;-82
2022/12/19 01:50:06;;;;;;;24.90;12.90;;;;;;;-0.10;50.20;101632.47;5035348;28;20045;-81
2022/12/19 01:52:33;;;;;;;25.13;12.55;;;;;;;-0.09;50.08;101621.66;5033400;28;20041;-81
2022/12/19 01:55:01;;;;;;;21.92;11.80;;;;;;;-0.08;49.99;101622.53;5027123;28;20053;-81
2022/12/19 01:57:29;;;;;;;23.23;11.90;;;;;;;-0.06;50.14;101618.00;5032073;28;20115;-81
2022/12/19 02:00:03;;;;;;;21.30;12.23;;;;;;;-0.04;50.43;101602.66;5032224;28;20083;-81
2022/12/19 02:02:44;;;;;;;22.33;11.82;;;;;;;-0.04;50.81;101598.16;5025250;28;20072;-81
2022/12/19 02:05:14;;;;;;;22.42;12.20;;;;;;;-0.04;50.37;101586.53;5028741;28;20034;-82
2022/12/19 02:07:44;;;;;;;23.33;12.25;;;;;;;-0.02;50.39;101582.88;5031856;28;20141;-80
2022/12/19 02:10:12;;;;;;;24.15;12.75;;;;;;;-0.04;50.29;101567.69;5030183;28;20104;-82
2022/12/19 02:12:43;;;;;;;24.48;12.82;;;;;;;-0.01;50.79;101575.66;5033600;28;20100;-81
2022/12/19 02:15:15;;;;;;;24.00;11.95;;;;;;;-0.01;50.64;101564.91;5028744;28;20508;-81
2022/12/19 02:18:03;;;;;;;22.88;13.00;;;;;;;-0.00;51.89;101555.03;5032035;28;20057;-82
2022/12/19 02:20:58;;;;;;;25.92;13.00;;;;;;;-0.00;52.21;101552.34;5042442;28;20056;-81
2022/12/19 02:24:02;;;;;;;23.50;11.48;;;;;;;0.01;52.01;101549.59;5028006;28;20496;-81
2022/12/19 02:26:51;;;;;;;22.38;12.00;;;;;;;-0.02;52.33;101544.31;5029650;28;20111;-82
2022/12/19 02:30:07;;;;;;;22.15;12.55;;;;;;;0.01;52.24;101536.16;5028823;28;20045;-82
2022/12/19 02:32:49;;;;;;;26.27;12.18;;;;;;;0.02;51.75;101535.22;4976247;28;20054;-82
2022/12/19 02:35:29;;;;;;;24.42;11.43;;;;;;;0.06;51.69;101538.66;5030014;28;20037;-82
2022/12/19 02:38:10;;;;;;;22.67;12.93;;;;;;;0.07;51.94;101518.91;5029697;28;20055;-82
2022/12/19 02:40:46;;;;;;;22.38;11.45;;;;;;;0.07;51.46;101511.72;5025909;28;20061;-80
2022/12/19 02:43:28;;;;;;;23.38;11.75;;;;;;;0.07;51.30;101516.22;5028967;28;20045;-82
2022/12/19 02:45:57;;;;;;;;;;;;;;;-0.11;52.49;101497.06;5030380;28;20041;-82
2022/12/19 02:48:28;;;;;;;20.42;10.50;;;;;;;0.08;51.33;101496.44;5033680;28;19921;-82
2022/12/19 02:50:57;;;;;;;21.15;11.40;;;;;;;0.13;51.15;101491.78;5033238;28;19921;-81
2022/12/19 02:53:25;;;;;;;24.27;12.43;;;;;;;0.13;51.25;101489.97;5032076;28;20049;-80
2022/12/19 02:56:17;;;;;;;23.40;12.23;;;;;;;0.16;52.08;101487.19;5030066;28;20286;-79
2022/12/19 02:59:00;;;;;;;22.25;12.02;;;;;;;0.15;51.93;101512.34;5030296;28;20115;-80
2022/12/19 03:01:43;;;;;;;23.02;11.63;;;;;;;0.20;51.99;101498.69;5028151;28;20093;-80
2022/12/19 03:04:24;;;;;;;22.33;11.27;;;;;;;0.21;52.11;101497.78;5019725;28;20046;-81
2022/12/19 03:06:57;;;;;;;23.65;11.75;;;;;;;0.21;51.58;101501.34;5028513;28;20140;-80
2022/12/19 03:09:38;;;;;;;24.08;12.98;;;;;;;0.21;52.26;101511.22;5030083;28;20103;-80
2022/12/19 03:12:11;;;;;;;23.38;12.55;;;;;;;0.23;51.55;101509.38;5030225;28;20038;-80
2022/12/19 03:14:45;;;;;;;22.63;11.65;;;;;;;0.25;51.59;101516.47;5029930;28;20038;-80
2022/12/19 03:17:13;;;;;;;23.25;12.45;;;;;;;0.26;51.60;101504.78;5029161;28;20084;-80
2022/12/19 03:19:48;;;;;;;23.67;11.48;;;;;;;0.28;51.41;101515.47;5030092;28;20416;-80
2022/12/19 03:22:16;;;;;;;23.83;12.38;;;;;;;0.28;51.52;101529.81;5030292;28;20477;-81
2022/12/19 03:24:44;;;;;;;20.92;12.02;;;;;;;0.31;51.47;101535.09;5028376;28;20044;-81
2022/12/19 03:27:19;;;;;;;23.70;11.80;;;;;;;0.33;51.83;101526.97;5026114;28;20407;-80
2022/12/19 03:29:54;;;;;;;21.80;11.57;;;;;;;0.34;52.00;101518.84;5027107;28;20042;-79
2022/12/19 03:32:24;;;;;;;20.15;10.93;;;;;;;0.34;51.62;101508.09;5018258;28;20041;-81
2022/12/19 03:34:58;;;;;;;23.70;11.52;;;;;;;0.36;52.08;101511.56;5027133;28;20042;-80
2022/12/19 03:37:30;;;;;;;21.02;10.85;;;;;;;0.38;51.73;101492.69;5023166;28;20107;-80
2022/12/19 03:40:08;;;;;;;23.90;12.05;;;;;;;0.40;52.15;101489.94;5025005;28;20045;-80
2022/12/19 03:45:33;;;;;;;23.88;12.70;;;;;;;0.36;52.41;101486.47;5022767;28;20033;-79
2022/12/19 03:48:06;;;;;;;22.95;11.98;;;;;;;0.38;52.09;101487.31;5023487;28;20084;-80
2022/12/19 03:50:48;;;;;;;26.45;12.82;;;;;;;0.39;52.84;101489.06;5025671;28;20236;-80
2022/12/19 03:53:27;;;;;;;26.30;12.88;;;;;;;0.38;53.01;101484.59;5028781;28;20049;-81
2022/12/19 03:56:03;;;;;;;24.00;11.75;;;;;;;0.41;52.08;101472.84;5019504;28;20477;-80
2022/12/19 03:58:35;;;;;;;23.63;11.77;;;;;;;0.39;52.08;101480.97;5028501;28;20055;-81
2022/12/19 04:01:04;;;;;;;23.95;12.65;;;;;;;0.39;51.77;101470.22;5027981;28;20048;-80
2022/12/19 04:03:33;;;;;;;23.58;12.43;;;;;;;0.41;51.87;101484.50;5027698;28;20033;-81
2022/12/19 04:06:04;;;;;;;22.40;12.48;;;;;;;0.43;52.20;101471.88;5027830;28;20053;-80
2022/12/19 04:08:35;;;;;;;22.02;12.35;;;;;;;0.42;51.77;101470.13;5028876;28;20060;-79
2022/12/19 04:11:08;;;;;;;21.50;12.15;;;;;;;0.44;52.34;101461.97;5025842;28;20313;-79
2022/12/19 04:13:41;;;;;;;25.65;13.38;;;;;;;0.44;52.35;101459.25;5032225;28;20040;-80
2022/12/19 04:16:13;;;;;;;;;;;;;;;0.20;54.01;101461.03;5028048;28;20081;-81
2022/12/19 04:18:44;;;;;;;20.65;11.63;;;;;;;0.36;52.29;101457.72;5032107;28;19925;-80
2022/12/19 04:21:22;;;;;;;24.48;12.68;;;;;;;0.43;52.88;101460.22;5032496;28;20037;-80
2022/12/19 04:23:55;;;;;;;23.80;11.93;;;;;;;0.43;52.48;101462.91;5030359;28;20045;-80
2022/12/19 04:26:24;;;;;;;22.55;12.23;;;;;;;0.41;52.45;101456.69;5031296;28;20045;-80
2022/12/19 04:28:56;;;;;;;21.85;12.35;;;;;;;0.42;52.77;101456.66;5035881;28;20057;-80
2022/12/19 04:31:24;;;;;;;24.10;11.95;;;;;;;0.43;52.41;101458.41;5021054;28;20488;-80
2022/12/19 04:33:52;;;;;;;20.88;11.70;;;;;;;0.43;52.29;101468.31;5032124;28;20041;-81
2022/12/19 04:36:21;;;;;;;20.77;11.27;;;;;;;0.44;52.33;101470.91;5029371;28;20046;-81
2022/12/19 04:38:49;;;;;;;19.85;11.02;;;;;;;0.45;52.36;101469.09;5024569;28;20041;-81
2022/12/19 04:41:17;;;;;;;22.10;11.57;;;;;;;0.45;52.81;101477.19;5017734;28;20042;-80
2022/12/19 04:43:45;;;;;;;20.02;11.00;;;;;;;0.46;52.50;101465.47;5025488;28;20045;-79
2022/12/19 04:46:13;;;;;;;20.75;10.45;;;;;;;0.47;52.61;101464.56;5027285;28;20192;-80
2022/12/19 04:48:41;;;;;;;22.52;11.80;;;;;;;0.47;52.80;101470.81;5031473;28;20034;-80
2022/12/19 04:51:08;;;;;;;20.63;11.60;;;;;;;0.49;52.79;101468.06;5031888;28;20542;-81
2022/12/19 04:53:38;;;;;;;20.15;11.15;;;;;;;0.51;52.90;101463.53;5033180;28;20037;-82
2022/12/19 04:56:07;;;;;;;23.50;12.25;;;;;;;0.50;53.00;101467.16;5031917;28;20068;-81
2022/12/19 04:58:35;;;;;;;21.15;11.70;;;;;;;0.51;52.90;101464.41;5029769;28;20046;-81
2022/12/19 05:01:03;;;;;;;23.15;12.00;;;;;;;0.52;52.67;101467.97;5025806;28;20425;-80
2022/12/19 05:03:32;;;;;;;24.25;13.20;;;;;;;0.50;53.25;101468.03;5026035;28;20044;-81
2022/12/19 05:06:04;;;;;;;22.55;11.68;;;;;;;0.55;53.84;101482.19;5031940;28;20045;-79
2022/12/19 05:08:33;;;;;;;20.17;11.02;;;;;;;0.53;53.20;101462.50;5040224;28;20112;-81
2022/12/19 05:11:03;;;;;;;22.25;11.52;;;;;;;0.57;53.18;101468.69;5029741;28;20108;-81
2022/12/19 05:13:31;;;;;;;22.00;11.57;;;;;;;0.55;53.21;101455.25;5029801;28;20484;-81
2022/12/19 05:16:01;;;;;;;21.45;11.32;;;;;;;0.57;53.21;101450.72;5026750;28;20104;-81
2022/12/19 05:18:30;;;;;;;21.75;12.23;;;;;;;0.58;53.22;101449.78;5033483;28;20107;-80
2022/12/19 05:20:59;;;;;;;22.98;11.65;;;;;;;0.58;53.30;101443.50;5033250;28;20088;-81
2022/12/19 05:23:27;;;;;;;18.67;10.70;;;;;;;0.59;53.45;101448.84;5027180;28;20063;-80
2022/12/19 05:25:57;;;;;;;22.48;11.98;;;;;;;0.60;53.55;101447.03;5021642;28;20511;-80
2022/12/19 05:28:27;;;;;;;20.63;10.85;;;;;;;0.60;53.45;101447.88;5028698;28;20049;-80
2022/12/19 05:31:03;;;;;;;22.45;11.68;;;;;;;0.62;54.75;101439.75;5027813;28;20037;-81
2022/12/19 05:33:31;;;;;;;21.90;11.55;;;;;;;0.60;53.38;101444.34;5026389;28;20048;-80
2022/12/19 05:35:58;;;;;;;22.77;11.10;;;;;;;0.62;53.31;101442.44;5031298;28;20077;-81
2022/12/19 05:38:26;;;;;;;19.20;10.90;;;;;;;0.62;53.40;101450.53;5031564;28;20050;-81
2022/12/19 05:40:54;;;;;;;21.92;11.43;;;;;;;0.63;53.45;101442.38;5029285;28;20338;-82
2022/12/19 05:43:22;;;;;;;20.92;11.98;;;;;;;0.63;53.60;101431.63;5028276;28;20052;-81
2022/12/19 05:45:52;;;;;;;19.35;10.98;;;;;;;0.66;53.67;101462.97;5023686;28;20489;-82
2022/12/19 05:48:20;;;;;;;20.92;11.32;;;;;;;0.66;53.77;101457.56;5031117;28;20411;-81
2022/12/19 05:50:49;;;;;;;24.20;11.90;;;;;;;0.66;53.78;101461.16;5023065;28;20045;-81
2022/12/19 05:53:17;;;;;;;20.90;11.27;;;;;;;0.66;53.96;101450.38;5027542;28;20060;-83
2022/12/19 05:55:52;;;;;;;23.25;12.35;;;;;;;0.68;53.95;101463.78;5028793;28;20041;-82
2022/12/19 05:58:20;;;;;;;20.63;11.80;;;;;;;0.68;53.78;101459.25;5030504;28;20473;-81
2022/12/19 06:00:48;;;;;;;19.63;10.63;;;;;;;0.69;53.92;101463.69;5023466;28;20034;-82
2022/12/19 06:03:17;;;;;;;19.33;10.45;;;;;;;0.72;54.07;101460.91;5028638;28;20104;-82
2022/12/19 06:05:45;;;;;;;22.30;11.60;;;;;;;0.72;53.78;101460.03;5024388;28;20099;-81
2022/12/19 06:08:13;;;;;;;19.17;10.95;;;;;;;0.73;54.05;101459.09;5031729;28;20083;-83
2022/12/19 06:10:41;;;;;;;22.38;11.43;;;;;;;0.73;54.05;101451.91;5031623;28;20041;-83
2022/12/19 06:13:09;;;;;;;24.35;12.07;;;;;;;0.74;54.18;101452.78;5030080;28;20140;-82
2022/12/19 06:15:37;;;;;;;21.75;11.90;;;;;;;0.75;54.24;101446.44;5029972;28;20152;-82
2022/12/19 06:18:05;;;;;;;22.77;11.73;;;;;;;0.74;54.54;101447.38;5032450;28;20049;-81
2022/12/19 06:20:34;;;;;;;22.92;11.50;;;;;;;0.76;54.57;101440.13;5030461;28;20041;-81
2022/12/19 06:23:02;;;;;;;19.80;11.55;;;;;;;0.78;54.27;101440.94;5031195;28;20042;-82
2022/12/19 06:25:30;;;;;;;22.52;12.48;;;;;;;0.78;54.69;101442.75;5031871;28;20065;-81
2022/12/19 06:27:58;;;;;;;21.83;12.05;;;;;;;0.81;54.61;101445.34;5032081;28;20055;-81
2022/12/19 06:30:26;;;;;;;20.40;11.10;;;;;;;0.81;54.56;101432.75;5030052;28;20049;-81
2022/12/19 06:32:54;;;;;;;20.27;11.40;;;;;;;0.83;54.53;101443.47;5033423;28;20045;-81
2022/12/19 06:35:22;;;;;;;20.15;10.95;;;;;;;0.84;54.45;101443.41;5031264;28;20128;-82
2022/12/19 06:37:51;;;;;;;18.85;9.98;;;;;;;0.86;54.76;101441.50;5023849;28;20052;-83
2022/12/19 06:43:11;;;;;;;19.27;10.45;;;;;;;0.87;54.62;101458.56;5024901;28;20037;-82
2022/12/19 06:45:39;;;;;;;17.60;9.82;;;;;;;0.90;54.86;101445.03;5026435;28;20558;-81
2022/12/19 06:48:07;;;;;;;18.98;10.50;;;;;;;0.91;54.94;101452.16;5030834;28;20049;-83
2022/12/19 06:50:35;;;;;;;21.27;11.50;;;;;;;0.93;54.98;101450.31;5029034;28;20045;-82
2022/12/19 06:53:05;;;;;;;20.30;10.57;;;;;;;0.96;55.43;101452.88;5030926;28;20492;-82
2022/12/19 06:55:36;;;;;;;19.17;10.38;;;;;;;0.97;55.13;101450.13;5031227;28;20046;-83
2022/12/19 06:58:04;;;;;;;20.05;10.95;;;;;;;0.98;54.96;101449.19;5034271;28;20083;-82
2022/12/19 07:00:36;;;;;;;18.23;9.70;;;;;;;1.01;55.25;101442.81;5023480;28;20053;-80
2022/12/19 07:03:08;;;;;;;18.33;10.00;;;;;;;1.02;55.16;101456.19;5028550;28;20049;-80
2022/12/19 07:05:37;;;;;;;19.45;9.80;;;;;;;1.01;55.18;101446.34;5030662;28;20293;-80
2022/12/19 07:08:08;;;;;;;18.50;9.93;;;;;;;1.06;55.64;101449.75;5031643;28;20046;-80
2022/12/19 07:10:36;;;;;;;17.90;10.27;;;;;;;1.07;55.19;101445.25;5027474;28;20120;-81
2022/12/19 07:13:04;;;;;;;18.40;10.25;;;;;;;1.08;55.13;101444.31;5028231;28;20049;-80
2022/12/19 07:15:35;;;;;;;17.38;10.65;;;;;;;1.11;55.35;101444.19;5029455;28;20045;-81
2022/12/19 07:18:05;;;;;;;18.70;10.18;;;;;;;1.11;55.31;101434.28;5030444;28;20053;-81
2022/12/19 07:20:36;;;;;;;18.60;10.82;;;;;;;1.13;55.48;101447.69;5026669;28;20042;-81
2022/12/19 07:23:16;;;;;;;17.45;10.20;;;;;;;1.14;55.83;101445.88;5029556;28;20042;-79
2022/12/19 07:25:45;;;;;;;17.95;9.90;;;;;;;1.16;55.29;101438.63;5033991;28;20041;-79
2022/12/19 07:28:13;;;;;;;19.52;10.00;;;;;;;1.18;55.34;101448.38;5024335;28;20041;-80
2022/12/19 07:30:41;;;;;;;20.42;10.52;;;;;;;1.21;55.04;101452.78;5024736;28;20068;-80
2022/12/19 07:33:09;;;;;;;18.15;10.93;;;;;;;1.20;55.41;101435.72;5018954;28;20752;-80
2022/12/19 07:35:39;;;;;;;18.45;10.30;;;;;;;1.23;55.40;101448.22;5028200;28;20041;-81
2022/12/19 07:38:07;;;;;;;18.23;10.77;;;;;;;1.24;55.53;101450.00;5031340;28;20471;-81
2022/12/19 07:40:37;;;;;;;17.35;9.65;;;;;;;1.26;55.47;101456.19;5028413;28;20095;-81
2022/12/19 07:43:06;;;;;;;21.80;10.48;;;;;;;1.26;55.56;101453.50;5027277;28;20061;-81
2022/12/19 07:45:36;;;;;;;19.92;10.65;;;;;;;1.28;55.59;101455.19;5030667;28;20046;-80
2022/12/19 07:48:05;;;;;;;16.67;9.52;;;;;;;1.30;55.61;101455.13;5026331;28;20404;-81
2022/12/19 07:50:33;;;;;;;18.60;10.75;;;;;;;1.29;55.70;101454.25;5026854;28;20047;-80
2022/12/19 07:53:01;;;;;;;17.23;9.50;;;;;;;1.31;55.49;101444.28;5031968;28;20113;-82
2022/12/19 07:55:29;;;;;;;17.48;10.95;;;;;;;1.31;55.79;101446.09;5035306;28;20045;-81
2022/12/19 07:57:59;;;;;;;19.17;10.80;;;;;;;1.33;56.38;101458.59;5033925;28;20053;-81
2022/12/19 08:00:27;;;;;;;16.90;10.10;;;;;;;1.35;55.81;101461.19;5029759;28;20709;-81
2022/12/19 08:02:55;;;;;;;18.77;10.00;;;;;;;1.36;55.80;101457.56;5031388;28;20048;-81
2022/12/19 08:05:23;;;;;;;16.92;9.43;;;;;;;1.38;55.96;101459.28;5032652;28;20055;-81
2022/12/19 08:07:50;;;;;;;21.60;10.43;;;;;;;1.39;55.73;101454.75;5051797;23;20103;-81
2022/12/19 08:10:21;;;;;;;19.60;10.10;;;;;;;1.38;55.88;101453.00;5043504;28;20293;-81
2022/12/19 08:12:49;;;;;;;16.45;9.70;;;;;;;1.41;55.91;101451.06;5049769;28;20107;-80
2022/12/19 08:15:18;;;;;;;20.15;10.73;;;;;;;1.42;56.24;101451.97;5053404;28;20559;-82
2022/12/19 08:17:46;;;;;;;18.35;10.88;;;;;;;1.43;56.23;101459.06;5051261;28;20099;-81
2022/12/19 08:20:14;;;;;;;16.45;9.63;;;;;;;1.44;56.04;101452.75;5062055;28;20037;-81
2022/12/19 08:22:42;;;;;;;19.60;10.57;;;;;;;1.46;56.17;101458.97;5054990;28;20067;-80
2022/12/19 08:25:10;;;;;;;17.00;9.98;;;;;;;1.48;56.43;101452.59;5053105;28;20052;-81
2022/12/19 08:27:38;;;;;;;17.02;9.32;;;;;;;1.50;56.21;101457.91;5065037;28;20041;-80
2022/12/19 08:30:07;;;;;;;17.73;9.77;;;;;;;1.52;56.11;101466.81;5060116;28;20060;-81
2022/12/19 08:32:37;;;;;;;17.98;10.57;;;;;;;1.54;56.44;101469.44;5055637;28;20041;-81
2022/12/19 08:35:06;;;;;;;18.33;10.75;;;;;;;1.54;56.28;101467.63;5061592;28;20045;-81
2022/12/19 08:37:35;;;;;;;15.73;9.80;;;;;;;1.54;56.28;101464.94;5055355;28;20048;-80
2022/12/19 08:40:03;;;;;;;15.45;9.27;;;;;;;1.55;56.23;101479.31;5052967;28;20510;-81
2022/12/19 08:42:32;;;;;;;17.90;9.82;;;;;;;1.58;56.49;101476.50;5056397;28;20408;-81
2022/12/19 08:45:00;;;;;;;16.35;9.35;;;;;;;1.58;56.06;101466.59;5051203;28;20047;-81
2022/12/19 08:47:29;;;;;;;15.50;9.63;;;;;;;1.60;56.29;101470.06;5054094;28;20105;-80
2022/12/19 08:49:58;;;;;;;17.88;10.73;;;;;;;1.61;56.44;101470.94;5059218;28;20071;-81
2022/12/19 08:52:26;;;;;;;16.90;10.32;;;;;;;1.62;56.43;101464.63;5057179;28;20045;-80
2022/12/19 08:54:54;;;;;;;17.55;9.90;;;;;;;1.63;56.54;101463.69;5055051;28;20504;-79
2022/12/19 08:57:21;;;;;;;15.75;8.77;;;;;;;1.62;56.39;101461.91;5057194;28;20648;-81
2022/12/19 08:59:49;;;;;;;17.15;9.82;;;;;;;1.64;56.52;101460.94;5068760;28;20107;-80
2022/12/19 09:02:18;;;;;;;17.85;10.02;;;;;;;1.65;56.46;101460.00;5064790;28;20075;-81
2022/12/19 09:04:47;;;;;;;18.77;10.82;;;;;;;1.67;56.50;101455.38;5067804;28;20044;-80
2022/12/19 09:07:36;;;;;;;18.67;9.80;;;;;;;1.68;56.69;101454.44;5065198;28;20088;-80
2022/12/19 09:10:07;;;;;;;17.92;10.93;;;;;;;1.69;56.68;101449.94;5064894;28;20052;-80
2022/12/19 09:12:35;;;;;;;16.67;9.38;;;;;;;1.71;56.78;101456.16;5055912;28;20051;-82
2022/12/19 09:15:03;;;;;;;15.27;9.48;;;;;;;1.69;56.68;101458.03;5059146;28;20059;-81
2022/12/19 09:17:31;;;;;;;18.58;10.60;;;;;;;1.73;56.69;101465.06;5064479;28;20041;-81
2022/12/19 09:19:59;;;;;;;16.10;10.32;;;;;;;1.74;56.60;101447.94;5065663;28;20079;-81
2022/12/19 09:22:27;;;;;;;16.92;10.20;;;;;;;1.73;56.75;101452.47;5063840;28;20033;-80
2022/12/19 09:24:57;;;;;;;16.90;9.48;;;;;;;1.76;57.08;101448.72;5069405;28;20065;-81
2022/12/19 09:27:25;;;;;;;18.45;10.32;;;;;;;1.76;56.74;101449.59;5068948;28;20053;-81
2022/12/19 09:29:53;;;;;;;17.73;9.48;;;;;;;1.79;56.88;101454.00;5066906;28;20064;-77
2022/12/19 09:32:21;;;;;;;18.35;9.85;;;;;;;1.80;57.12;101453.06;5060474;28;20049;-81
2022/12/19 09:34:49;;;;;;;17.73;10.10;;;;;;;1.80;57.39;101455.78;5057596;28;20060;-81
2022/12/19 09:37:18;;;;;;;18.08;9.98;;;;;;;1.83;57.42;101461.94;5053886;28;20041;-81
2022/12/19 09:39:47;;;;;;;17.88;9.82;;;;;;;1.85;57.02;101456.44;5054452;28;20049;-81
2022/12/19 09:42:39;;;;;;;17.23;9.05;;;;;;;1.87;58.39;101463.53;5058159;28;20041;-80
2022/12/19 09:45:22;;;;;;;14.05;8.65;;;;;;;1.87;57.93;101468.06;5051560;28;20080;-80
2022/12/19 09:47:58;;;;;;;17.08;9.00;;;;;;;1.86;57.02;101455.50;5056424;28;20053;-82
2022/12/19 09:50:33;;;;;;;14.98;8.60;;;;;;;1.90;57.54;101467.94;5052846;28;20120;-83
2022/12/19 09:53:06;;;;;;;16.10;9.05;;;;;;;1.91;57.02;101469.72;5050302;28;20041;-82
2022/12/19 09:55:37;;;;;;;18.58;9.00;;;;;;;1.92;57.15;101478.69;5053640;28;20056;-82
2022/12/19 09:58:14;;;;;;;16.90;9.20;;;;;;;1.93;57.75;101481.28;5048229;28;20041;-82
2022/12/19 10:00:44;;;;;;;16.50;9.18;;;;;;;1.95;57.10;101481.22;5041624;28;20037;-82
2022/12/19 10:03:20;;;;;;;15.43;9.07;;;;;;;1.96;57.51;101477.59;5052430;28;20044;-83
2022/12/19 10:05:53;;;;;;;17.23;9.88;;;;;;;1.95;57.35;101483.94;5052388;28;20079;-82
2022/12/19 10:08:43;;;;;;;17.08;9.48;;;;;;;1.96;57.27;101491.09;5047978;28;20321;-82
2022/12/19 10:11:56;;;;;;;18.00;10.55;;;;;;;1.97;58.27;101480.25;5051414;28;20045;-82
2022/12/19 10:14:57;;;;;;;16.33;8.97;;;;;;;1.97;58.34;101479.34;5066371;28;20045;-81
2022/12/19 10:17:36;;;;;;;17.77;10.13;;;;;;;1.99;57.98;101481.06;5050478;28;20048;-81
2022/12/19 10:20:19;;;;;;;18.38;9.88;;;;;;;2.01;58.50;101486.38;5053683;28;20056;-84
2022/12/19 10:22:58;;;;;;;16.05;9.60;;;;;;;2.00;58.18;101468.44;5062471;28;20037;-81
2022/12/19 10:25:32;;;;;;;14.50;9.50;;;;;;;2.02;57.65;101478.22;5061233;28;20080;-81
2022/12/19 10:28:12;;;;;;;17.02;9.68;;;;;;;2.03;57.90;101468.28;5061275;28;20053;-82
2022/12/19 10:30:47;;;;;;;13.45;8.50;;;;;;;2.04;57.95;101473.63;5060464;28;20045;-81
2022/12/19 10:33:23;;;;;;;18.60;10.48;;;;;;;2.05;57.86;101464.59;5059915;28;20067;-81
2022/12/19 10:35:56;;;;;;;18.42;10.13;;;;;;;2.06;57.73;101465.47;5057003;28;20045;-81
2022/12/19 10:38:33;;;;;;;17.83;10.32;;;;;;;2.07;57.79;101460.03;5050302;28;20059;-80
2022/12/19 10:41:16;;;;;;;16.35;10.07;;;;;;;2.11;58.74;101447.25;5043200;28;20049;-81
2022/12/19 10:43:56;;;;;;;15.02;9.35;;;;;;;2.14;58.75;101444.44;5049935;28;20053;-84
2022/12/19 10:46:45;;;;;;;16.92;9.00;;;;;;;2.19;59.05;101450.50;5049443;28;20066;-84
2022/12/19 10:49:15;;;;;;;17.75;9.52;;;;;;;2.23;58.07;101441.31;5048935;28;20040;-80
2022/12/19 10:51:53;;;;;;;17.27;9.85;;;;;;;2.30;59.05;101441.94;5051100;28;20072;-81
2022/12/19 10:54:22;;;;;;;15.75;9.02;;;;;;;2.35;58.07;101450.69;5048239;28;20045;-81
2022/12/19 10:57:18;;;;;;;16.42;9.48;;;;;;;2.40;59.31;101457.69;5051445;28;20134;-80
2022/12/19 10:59:55;;;;;;;15.57;9.50;;;;;;;2.47;58.99;101440.25;5054409;28;20044;-81
2022/12/19 11:02:34;;;;;;;16.52;9.25;;;;;;;2.52;58.96;101432.78;5059215;28;20083;-82
2022/12/19 11:05:04;;;;;;;17.48;9.68;;;;;;;2.56;58.13;101434.44;5048829;28;20137;-81
2022/12/19 11:07:32;;;;;;;15.40;9.30;;;;;;;2.61;57.88;101426.97;5047783;28;20037;-81
2022/12/19 11:10:00;;;;;;;14.43;9.48;;;;;;;2.68;57.86;101440.19;5047167;28;20041;-81
2022/12/19 11:12:52;;;;;;;14.45;8.63;;;;;;;2.71;57.87;101440.97;5049854;28;20139;-81
2022/12/19 11:15:47;;;;;;;16.60;9.43;;;;;;;2.76;58.29;101435.31;5044345;28;20037;-81
2022/12/19 11:18:38;;;;;;;16.10;8.70;;;;;;;2.80;57.72;101435.13;5048004;28;20040;-80
2022/12/19 11:21:29;;;;;;;14.95;8.63;;;;;;;2.84;57.64;101434.03;5049360;28;20049;-80
2022/12/19 11:24:24;;;;;;;15.50;8.65;;;;;;;2.88;57.90;101424.84;5045837;28;20040;-81
2022/12/19 11:27:32;;;;;;;17.00;9.48;;;;;;;2.91;58.20;101432.78;5051589;28;20570;-82
2022/12/19 11:30:23;;;;;;;15.05;9.60;;;;;;;2.91;57.55;101435.50;5048168;28;20047;-82
2022/12/19 11:33:14;;;;;;;15.70;8.43;;;;;;;2.95;57.07;101411.91;5042593;28;20576;-81
2022/12/19 11:35:49;;;;;;;17.27;9.02;;;;;;;3.00;57.73;101420.66;5047040;28;20043;-81
2022/12/19 11:38:25;;;;;;;14.95;8.77;;;;;;;3.02;57.46;101426.88;5055902;28;20041;-81
2022/12/19 11:40:57;;;;;;;14.88;8.32;;;;;;;3.04;57.20;101422.28;5052810;28;20287;-81
2022/12/19 11:43:32;;;;;;;17.08;9.15;;;;;;;3.07;57.00;101418.56;5048870;28;20049;-81
2022/12/19 11:46:28;;;;;;;13.18;8.43;;;;;;;3.09;57.63;101416.66;5052829;28;20045;-80
2022/12/19 11:49:02;;;;;;;15.07;8.88;;;;;;;3.11;57.15;101428.28;5054126;28;20079;-81
2022/12/19 11:51:39;;;;;;;14.48;9.10;;;;;;;3.13;57.21;101420.97;5053863;28;20044;-80
2022/12/19 11:54:15;;;;;;;18.42;8.98;;;;;;;3.15;57.28;101428.06;5035351;28;20422;-80